sensor_id;sensor_type;location;lat;lon;timestamp;temperature;humidity
8114;DHT22;4099;52.684;9.918;2022-07-24T00:02:46;13.10;99.90
8114;DHT22;4099;52.684;9.918;2022-07-24T00:07:48;13.10;99.90
8114;DHT22;4099;52.684;9.918;2022-07-24T00:12:50;13.30;99.90
8114;DHT22;4099;52.684;9.918;2022-07-24T00:17:53;13.30;99.90
8114;DHT22;4099;52.684;9.918;2022-07-24T00:22:55;12.80;99.90
8114;DHT22;4099;52.684;9.918;2022-07-24T00:27:57;13.00;99.90
8114;DHT22;4099;52.684;9.918;2022-07-24T00:33:00;13.20;99.90
8114;DHT22;4099;52.684;9.918;2022-07-24T00:38:02;13.40;99.90
8114;DHT22;4099;52.684;9.918;2022-07-24T00:43:04;13.00;99.90
8114;DHT22;4099;52.684;9.918;2022-07-24T00:48:08;12.90;99.90
8114;DHT22;4099;52.684;9.918;2022-07-24T00:53:09;12.80;99.90
8114;DHT22;4099;52.684;9.918;2022-07-24T00:58:11;12.40;99.90
8114;DHT22;4099;52.684;9.918;2022-07-24T01:03:14;12.40;99.90
8114;DHT22;4099;52.684;9.918;2022-07-24T01:08:16;12.40;99.90
8114;DHT22;4099;52.684;9.918;2022-07-24T01:13:18;12.70;99.90
8114;DHT22;4099;52.684;9.918;2022-07-24T01:18:21;12.40;99.90
8114;DHT22;4099;52.684;9.918;2022-07-24T01:23:24;12.40;99.90
8114;DHT22;4099;52.684;9.918;2022-07-24T01:28:27;12.20;99.90
8114;DHT22;4099;52.684;9.918;2022-07-24T01:33:29;12.40;99.90
8114;DHT22;4099;52.684;9.918;2022-07-24T01:38:32;12.30;99.90
8114;DHT22;4099;52.684;9.918;2022-07-24T01:43:34;11.80;99.90
8114;DHT22;4099;52.684;9.918;2022-07-24T01:48:35;12.00;99.90
8114;DHT22;4099;52.684;9.918;2022-07-24T01:53:38;12.00;99.90
8114;DHT22;4099;52.684;9.918;2022-07-24T01:58:40;12.00;99.90
8114;DHT22;4099;52.684;9.918;2022-07-24T02:03:42;11.80;99.90
8114;DHT22;4099;52.684;9.918;2022-07-24T02:08:46;11.70;99.90
8114;DHT22;4099;52.684;9.918;2022-07-24T02:13:48;11.90;99.90
8114;DHT22;4099;52.684;9.918;2022-07-24T02:18:49;11.60;99.90
8114;DHT22;4099;52.684;9.918;2022-07-24T02:23:53;11.10;99.90
8114;DHT22;4099;52.684;9.918;2022-07-24T02:28:54;11.30;99.90
8114;DHT22;4099;52.684;9.918;2022-07-24T02:33:56;11.70;99.90
8114;DHT22;4099;52.684;9.918;2022-07-24T02:38:59;11.50;99.90
8114;DHT22;4099;52.684;9.918;2022-07-24T02:44:01;11.20;99.90
8114;DHT22;4099;52.684;9.918;2022-07-24T02:49:03;11.20;99.90
8114;DHT22;4099;52.684;9.918;2022-07-24T02:54:06;11.40;99.90
8114;DHT22;4099;52.684;9.918;2022-07-24T02:59:07;10.90;99.90
8114;DHT22;4099;52.684;9.918;2022-07-24T03:04:09;10.70;99.90
8114;DHT22;4099;52.684;9.918;2022-07-24T03:09:12;11.10;99.90
8114;DHT22;4099;52.684;9.918;2022-07-24T03:14:14;11.50;99.90
8114;DHT22;4099;52.684;9.918;2022-07-24T03:19:16;11.60;99.90
8114;DHT22;4099;52.684;9.918;2022-07-24T03:24:19;11.50;99.90
8114;DHT22;4099;52.684;9.918;2022-07-24T03:29:21;11.10;99.90
8114;DHT22;4099;52.684;9.918;2022-07-24T03:34:22;11.10;99.90
8114;DHT22;4099;52.684;9.918;2022-07-24T03:39:25;11.00;99.90
8114;DHT22;4099;52.684;9.918;2022-07-24T03:44:28;10.50;99.90
8114;DHT22;4099;52.684;9.918;2022-07-24T03:49:30;10.40;99.90
8114;DHT22;4099;52.684;9.918;2022-07-24T03:54:33;10.60;99.90
8114;DHT22;4099;52.684;9.918;2022-07-24T03:59:35;10.90;99.90
8114;DHT22;4099;52.684;9.918;2022-07-24T04:04:36;11.10;99.90
8114;DHT22;4099;52.684;9.918;2022-07-24T04:09:39;11.00;99.90
8114;DHT22;4099;52.684;9.918;2022-07-24T04:14:41;11.10;99.90
8114;DHT22;4099;52.684;9.918;2022-07-24T04:19:43;10.90;99.90
8114;DHT22;4099;52.684;9.918;2022-07-24T04:24:46;11.00;99.90
8114;DHT22;4099;52.684;9.918;2022-07-24T04:29:48;11.30;99.90
8114;DHT22;4099;52.684;9.918;2022-07-24T04:34:49;11.10;99.90
8114;DHT22;4099;52.684;9.918;2022-07-24T04:39:52;11.20;99.90
8114;DHT22;4099;52.684;9.918;2022-07-24T04:44:58;11.10;99.90
8114;DHT22;4099;52.684;9.918;2022-07-24T04:50:00;11.10;99.90
8114;DHT22;4099;52.684;9.918;2022-07-24T04:55:05;11.20;99.90
8114;DHT22;4099;52.684;9.918;2022-07-24T05:00:09;11.50;99.90
8114;DHT22;4099;52.684;9.918;2022-07-24T05:05:11;11.80;99.90
8114;DHT22;4099;52.684;9.918;2022-07-24T05:10:15;11.90;99.90
8114;DHT22;4099;52.684;9.918;2022-07-24T05:15:16;12.40;99.90
8114;DHT22;4099;52.684;9.918;2022-07-24T05:20:18;12.60;99.90
8114;DHT22;4099;52.684;9.918;2022-07-24T05:25:21;12.90;99.90
8114;DHT22;4099;52.684;9.918;2022-07-24T05:30:23;13.10;99.90
8114;DHT22;4099;52.684;9.918;2022-07-24T05:35:25;13.30;99.90
8114;DHT22;4099;52.684;9.918;2022-07-24T05:40:28;13.60;99.90
8114;DHT22;4099;52.684;9.918;2022-07-24T05:45:30;14.00;99.90
8114;DHT22;4099;52.684;9.918;2022-07-24T05:50:32;14.50;99.90
8114;DHT22;4099;52.684;9.918;2022-07-24T05:55:35;14.90;99.90
8114;DHT22;4099;52.684;9.918;2022-07-24T06:00:37;15.30;99.90
8114;DHT22;4099;52.684;9.918;2022-07-24T06:05:38;15.60;99.90
8114;DHT22;4099;52.684;9.918;2022-07-24T06:10:42;15.90;99.90
8114;DHT22;4099;52.684;9.918;2022-07-24T06:15:43;16.30;99.90
8114;DHT22;4099;52.684;9.918;2022-07-24T06:20:45;16.60;99.90
8114;DHT22;4099;52.684;9.918;2022-07-24T06:25:48;16.80;99.90
8114;DHT22;4099;52.684;9.918;2022-07-24T06:30:50;17.00;99.90
8114;DHT22;4099;52.684;9.918;2022-07-24T06:35:51;17.20;99.90
8114;DHT22;4099;52.684;9.918;2022-07-24T06:40:54;17.60;99.90
8114;DHT22;4099;52.684;9.918;2022-07-24T06:45:56;18.00;38.90
8114;DHT22;4099;52.684;9.918;2022-07-24T06:50:58;18.40;1.00
8114;DHT22;4099;52.684;9.918;2022-07-24T06:56:02;18.70;1.00
8114;DHT22;4099;52.684;9.918;2022-07-24T07:01:04;18.90;1.00
8114;DHT22;4099;52.684;9.918;2022-07-24T07:06:06;19.10;1.00
8114;DHT22;4099;52.684;9.918;2022-07-24T07:11:09;19.30;1.00
8114;DHT22;4099;52.684;9.918;2022-07-24T07:16:11;19.70;1.00
8114;DHT22;4099;52.684;9.918;2022-07-24T07:21:13;20.10;99.90
8114;DHT22;4099;52.684;9.918;2022-07-24T07:26:16;20.70;14.20
8114;DHT22;4099;52.684;9.918;2022-07-24T07:31:17;21.00;1.00
8114;DHT22;4099;52.684;9.918;2022-07-24T07:36:19;21.40;1.00
8114;DHT22;4099;52.684;9.918;2022-07-24T07:41:22;21.80;1.00
8114;DHT22;4099;52.684;9.918;2022-07-24T07:46:24;22.10;1.00
8114;DHT22;4099;52.684;9.918;2022-07-24T07:51:26;22.10;1.00
8114;DHT22;4099;52.684;9.918;2022-07-24T07:56:30;22.60;23.40
8114;DHT22;4099;52.684;9.918;2022-07-24T08:01:33;23.00;1.00
8114;DHT22;4099;52.684;9.918;2022-07-24T08:06:35;23.30;99.90
8114;DHT22;4099;52.684;9.918;2022-07-24T08:11:38;23.80;99.90
8114;DHT22;4099;52.684;9.918;2022-07-24T08:16:40;23.80;1.00
8114;DHT22;4099;52.684;9.918;2022-07-24T08:21:42;24.20;99.90
8114;DHT22;4099;52.684;9.918;2022-07-24T08:26:45;24.10;1.00
8114;DHT22;4099;52.684;9.918;2022-07-24T08:31:47;24.50;1.00
8114;DHT22;4099;52.684;9.918;2022-07-24T08:36:49;24.90;99.90
8114;DHT22;4099;52.684;9.918;2022-07-24T08:41:52;25.40;1.00
8114;DHT22;4099;52.684;9.918;2022-07-24T08:46:58;25.40;1.00
8114;DHT22;4099;52.684;9.918;2022-07-24T08:52:03;26.00;1.00
8114;DHT22;4099;52.684;9.918;2022-07-24T08:57:09;26.50;1.00
8114;DHT22;4099;52.684;9.918;2022-07-24T09:02:11;26.60;1.00
8114;DHT22;4099;52.684;9.918;2022-07-24T09:07:15;26.70;2.90
8114;DHT22;4099;52.684;9.918;2022-07-24T09:12:18;26.50;26.80
8114;DHT22;4099;52.684;9.918;2022-07-24T09:17:21;26.40;1.00
8114;DHT22;4099;52.684;9.918;2022-07-24T09:22:31;26.60;1.00
8114;DHT22;4099;52.684;9.918;2022-07-24T09:27:35;27.00;29.40
8114;DHT22;4099;52.684;9.918;2022-07-24T09:32:38;26.60;14.40
8114;DHT22;4099;52.684;9.918;2022-07-24T09:37:40;27.00;24.50
8114;DHT22;4099;52.684;9.918;2022-07-24T09:42:44;27.00;8.60
8114;DHT22;4099;52.684;9.918;2022-07-24T09:47:52;27.30;3.80
8114;DHT22;4099;52.684;9.918;2022-07-24T09:52:55;27.60;1.00
8114;DHT22;4099;52.684;9.918;2022-07-24T09:57:59;27.40;1.00
8114;DHT22;4099;52.684;9.918;2022-07-24T10:03:04;27.60;1.00
8114;DHT22;4099;52.684;9.918;2022-07-24T10:08:07;28.00;1.00
8114;DHT22;4099;52.684;9.918;2022-07-24T10:13:12;28.00;1.00
8114;DHT22;4099;52.684;9.918;2022-07-24T10:18:16;28.50;1.00
8114;DHT22;4099;52.684;9.918;2022-07-24T10:23:22;28.90;1.00
8114;DHT22;4099;52.684;9.918;2022-07-24T10:28:42;29.00;1.00
8114;DHT22;4099;52.684;9.918;2022-07-24T10:33:47;29.80;1.00
8114;DHT22;4099;52.684;9.918;2022-07-24T10:38:56;29.60;1.00
8114;DHT22;4099;52.684;9.918;2022-07-24T10:44:18;28.90;1.00
8114;DHT22;4099;52.684;9.918;2022-07-24T10:49:37;29.70;1.00
8114;DHT22;4099;52.684;9.918;2022-07-24T10:54:40;29.90;1.00
8114;DHT22;4099;52.684;9.918;2022-07-24T10:59:43;30.20;1.00
8114;DHT22;4099;52.684;9.918;2022-07-24T11:04:45;30.40;1.00
8114;DHT22;4099;52.684;9.918;2022-07-24T11:09:54;30.60;1.00
8114;DHT22;4099;52.684;9.918;2022-07-24T11:15:00;29.80;1.00
8114;DHT22;4099;52.684;9.918;2022-07-24T11:20:17;30.50;1.00
8114;DHT22;4099;52.684;9.918;2022-07-24T11:25:20;30.80;1.00
8114;DHT22;4099;52.684;9.918;2022-07-24T11:30:25;30.40;1.00
8114;DHT22;4099;52.684;9.918;2022-07-24T11:35:29;30.80;1.00
8114;DHT22;4099;52.684;9.918;2022-07-24T11:40:31;30.50;1.00
8114;DHT22;4099;52.684;9.918;2022-07-24T11:45:35;30.50;1.00
8114;DHT22;4099;52.684;9.918;2022-07-24T11:50:36;31.50;1.00
8114;DHT22;4099;52.684;9.918;2022-07-24T11:55:38;31.70;1.00
8114;DHT22;4099;52.684;9.918;2022-07-24T12:00:42;31.50;1.00
8114;DHT22;4099;52.684;9.918;2022-07-24T12:05:44;32.40;1.00
8114;DHT22;4099;52.684;9.918;2022-07-24T12:10:53;32.50;1.00
8114;DHT22;4099;52.684;9.918;2022-07-24T12:15:57;32.40;1.00
8114;DHT22;4099;52.684;9.918;2022-07-24T12:21:00;32.40;1.00
8114;DHT22;4099;52.684;9.918;2022-07-24T12:26:02;32.40;1.00
8114;DHT22;4099;52.684;9.918;2022-07-24T12:31:07;32.80;1.00
8114;DHT22;4099;52.684;9.918;2022-07-24T12:36:11;33.00;1.00
8114;DHT22;4099;52.684;9.918;2022-07-24T12:41:15;32.70;1.00
8114;DHT22;4099;52.684;9.918;2022-07-24T12:46:21;33.00;1.00
8114;DHT22;4099;52.684;9.918;2022-07-24T12:51:22;33.20;1.00
8114;DHT22;4099;52.684;9.918;2022-07-24T12:56:33;33.40;1.00
8114;DHT22;4099;52.684;9.918;2022-07-24T13:01:47;34.00;1.00
8114;DHT22;4099;52.684;9.918;2022-07-24T13:06:50;34.30;1.00
8114;DHT22;4099;52.684;9.918;2022-07-24T13:11:54;34.40;1.00
8114;DHT22;4099;52.684;9.918;2022-07-24T13:17:04;35.10;1.00
8114;DHT22;4099;52.684;9.918;2022-07-24T13:22:06;35.20;1.00
8114;DHT22;4099;52.684;9.918;2022-07-24T13:27:10;35.30;1.00
8114;DHT22;4099;52.684;9.918;2022-07-24T13:32:14;36.10;1.00
8114;DHT22;4099;52.684;9.918;2022-07-24T13:37:18;35.70;1.00
8114;DHT22;4099;52.684;9.918;2022-07-24T13:42:20;36.50;1.00
8114;DHT22;4099;52.684;9.918;2022-07-24T13:47:23;36.40;1.00
8114;DHT22;4099;52.684;9.918;2022-07-24T13:52:25;36.50;1.00
8114;DHT22;4099;52.684;9.918;2022-07-24T13:57:27;36.50;1.00
8114;DHT22;4099;52.684;9.918;2022-07-24T14:02:30;36.60;1.00
8114;DHT22;4099;52.684;9.918;2022-07-24T14:07:32;37.20;1.00
8114;DHT22;4099;52.684;9.918;2022-07-24T14:12:34;37.70;1.00
8114;DHT22;4099;52.684;9.918;2022-07-24T14:17:38;37.10;1.00
8114;DHT22;4099;52.684;9.918;2022-07-24T14:22:41;37.20;1.00
8114;DHT22;4099;52.684;9.918;2022-07-24T14:27:43;37.20;1.00
8114;DHT22;4099;52.684;9.918;2022-07-24T14:32:46;37.80;1.00
8114;DHT22;4099;52.684;9.918;2022-07-24T14:37:48;39.60;1.00
8114;DHT22;4099;52.684;9.918;2022-07-24T14:42:51;39.40;1.00
8114;DHT22;4099;52.684;9.918;2022-07-24T14:47:55;40.00;1.00
8114;DHT22;4099;52.684;9.918;2022-07-24T14:52:57;38.60;1.00
8114;DHT22;4099;52.684;9.918;2022-07-24T14:57:59;36.50;1.00
8114;DHT22;4099;52.684;9.918;2022-07-24T15:03:06;37.70;1.00
8114;DHT22;4099;52.684;9.918;2022-07-24T15:08:08;38.60;1.00
8114;DHT22;4099;52.684;9.918;2022-07-24T15:13:10;35.50;1.00
8114;DHT22;4099;52.684;9.918;2022-07-24T15:18:14;33.50;1.00
8114;DHT22;4099;52.684;9.918;2022-07-24T15:23:17;32.40;1.00
8114;DHT22;4099;52.684;9.918;2022-07-24T15:28:19;31.70;1.00
8114;DHT22;4099;52.684;9.918;2022-07-24T15:33:24;31.90;1.00
8114;DHT22;4099;52.684;9.918;2022-07-24T15:38:29;31.50;1.00
8114;DHT22;4099;52.684;9.918;2022-07-24T15:43:32;31.30;1.00
8114;DHT22;4099;52.684;9.918;2022-07-24T15:48:35;31.30;1.00
8114;DHT22;4099;52.684;9.918;2022-07-24T15:53:38;31.10;1.00
8114;DHT22;4099;52.684;9.918;2022-07-24T15:58:40;30.80;1.00
8114;DHT22;4099;52.684;9.918;2022-07-24T16:03:44;30.70;1.00
8114;DHT22;4099;52.684;9.918;2022-07-24T16:08:47;31.10;1.00
8114;DHT22;4099;52.684;9.918;2022-07-24T16:13:49;31.20;1.00
8114;DHT22;4099;52.684;9.918;2022-07-24T16:18:53;31.20;1.00
8114;DHT22;4099;52.684;9.918;2022-07-24T16:23:55;31.50;1.00
8114;DHT22;4099;52.684;9.918;2022-07-24T16:28:58;31.70;1.00
8114;DHT22;4099;52.684;9.918;2022-07-24T16:34:02;31.90;1.00
8114;DHT22;4099;52.684;9.918;2022-07-24T16:39:04;33.60;1.00
8114;DHT22;4099;52.684;9.918;2022-07-24T16:44:07;37.00;1.00
8114;DHT22;4099;52.684;9.918;2022-07-24T16:49:11;39.10;1.00
8114;DHT22;4099;52.684;9.918;2022-07-24T16:54:14;39.50;1.00
8114;DHT22;4099;52.684;9.918;2022-07-24T16:59:17;39.80;1.00
8114;DHT22;4099;52.684;9.918;2022-07-24T17:04:20;40.10;1.00
8114;DHT22;4099;52.684;9.918;2022-07-24T17:09:23;40.20;1.00
8114;DHT22;4099;52.684;9.918;2022-07-24T17:14:25;40.40;1.00
8114;DHT22;4099;52.684;9.918;2022-07-24T17:19:30;39.20;1.00
8114;DHT22;4099;52.684;9.918;2022-07-24T17:24:32;39.60;1.00
8114;DHT22;4099;52.684;9.918;2022-07-24T17:29:35;41.20;1.00
8114;DHT22;4099;52.684;9.918;2022-07-24T17:34:39;41.00;1.00
8114;DHT22;4099;52.684;9.918;2022-07-24T17:39:41;41.10;1.00
8114;DHT22;4099;52.684;9.918;2022-07-24T17:44:44;40.90;1.00
8114;DHT22;4099;52.684;9.918;2022-07-24T17:49:48;39.10;1.00
8114;DHT22;4099;52.684;9.918;2022-07-24T17:54:51;37.50;1.00
8114;DHT22;4099;52.684;9.918;2022-07-24T17:59:53;34.50;1.00
8114;DHT22;4099;52.684;9.918;2022-07-24T18:04:58;32.10;1.00
8114;DHT22;4099;52.684;9.918;2022-07-24T18:10:02;30.60;1.00
8114;DHT22;4099;52.684;9.918;2022-07-24T18:15:06;30.00;1.00
8114;DHT22;4099;52.684;9.918;2022-07-24T18:20:10;29.50;1.00
8114;DHT22;4099;52.684;9.918;2022-07-24T18:25:13;28.90;1.00
8114;DHT22;4099;52.684;9.918;2022-07-24T18:30:15;28.60;1.00
8114;DHT22;4099;52.684;9.918;2022-07-24T18:35:20;28.20;1.00
8114;DHT22;4099;52.684;9.918;2022-07-24T18:40:22;27.90;1.00
8114;DHT22;4099;52.684;9.918;2022-07-24T18:45:24;27.70;1.00
8114;DHT22;4099;52.684;9.918;2022-07-24T18:50:28;27.30;1.00
8114;DHT22;4099;52.684;9.918;2022-07-24T18:55:31;26.90;1.00
8114;DHT22;4099;52.684;9.918;2022-07-24T19:00:33;26.60;1.00
8114;DHT22;4099;52.684;9.918;2022-07-24T19:05:37;26.30;1.00
8114;DHT22;4099;52.684;9.918;2022-07-24T19:10:40;26.00;1.00
8114;DHT22;4099;52.684;9.918;2022-07-24T19:15:43;25.60;1.00
8114;DHT22;4099;52.684;9.918;2022-07-24T19:20:47;25.40;1.00
8114;DHT22;4099;52.684;9.918;2022-07-24T19:25:49;25.30;1.00
8114;DHT22;4099;52.684;9.918;2022-07-24T19:30:52;25.20;1.00
8114;DHT22;4099;52.684;9.918;2022-07-24T19:35:55;24.90;1.00
8114;DHT22;4099;52.684;9.918;2022-07-24T19:40:58;24.60;1.00
8114;DHT22;4099;52.684;9.918;2022-07-24T19:46:00;24.40;1.00
8114;DHT22;4099;52.684;9.918;2022-07-24T19:51:05;24.10;73.90
8114;DHT22;4099;52.684;9.918;2022-07-24T19:56:08;23.70;1.00
8114;DHT22;4099;52.684;9.918;2022-07-24T20:01:10;23.80;99.90
8114;DHT22;4099;52.684;9.918;2022-07-24T20:06:14;23.60;99.90
8114;DHT22;4099;52.684;9.918;2022-07-24T20:11:16;23.20;99.90
8114;DHT22;4099;52.684;9.918;2022-07-24T20:16:19;23.00;1.00
8114;DHT22;4099;52.684;9.918;2022-07-24T20:21:23;22.90;1.00
8114;DHT22;4099;52.684;9.918;2022-07-24T20:26:25;22.70;28.20
8114;DHT22;4099;52.684;9.918;2022-07-24T20:31:27;22.40;1.00
8114;DHT22;4099;52.684;9.918;2022-07-24T20:36:31;22.10;1.00
8114;DHT22;4099;52.684;9.918;2022-07-24T20:41:34;22.00;99.90
8114;DHT22;4099;52.684;9.918;2022-07-24T20:46:36;21.90;1.00
8114;DHT22;4099;52.684;9.918;2022-07-24T20:51:40;21.80;95.40
8114;DHT22;4099;52.684;9.918;2022-07-24T20:56:43;21.80;1.00
8114;DHT22;4099;52.684;9.918;2022-07-24T21:01:45;21.90;99.90
8114;DHT22;4099;52.684;9.918;2022-07-24T21:06:49;21.60;26.90
8114;DHT22;4099;52.684;9.918;2022-07-24T21:11:51;21.90;99.90
8114;DHT22;4099;52.684;9.918;2022-07-24T21:16:54;21.70;1.00
8114;DHT22;4099;52.684;9.918;2022-07-24T21:21:58;21.30;1.00
8114;DHT22;4099;52.684;9.918;2022-07-24T21:27:00;21.10;1.00
8114;DHT22;4099;52.684;9.918;2022-07-24T21:32:03;20.90;1.00
8114;DHT22;4099;52.684;9.918;2022-07-24T21:37:07;20.80;1.00
8114;DHT22;4099;52.684;9.918;2022-07-24T21:42:10;20.50;1.00
8114;DHT22;4099;52.684;9.918;2022-07-24T21:47:12;20.40;1.00
8114;DHT22;4099;52.684;9.918;2022-07-24T21:52:16;20.40;1.00
8114;DHT22;4099;52.684;9.918;2022-07-24T21:57:18;20.30;1.00
8114;DHT22;4099;52.684;9.918;2022-07-24T22:02:23;20.20;1.00
8114;DHT22;4099;52.684;9.918;2022-07-24T22:07:27;20.40;1.00
8114;DHT22;4099;52.684;9.918;2022-07-24T22:12:29;20.30;1.00
8114;DHT22;4099;52.684;9.918;2022-07-24T22:17:31;20.00;1.00
8114;DHT22;4099;52.684;9.918;2022-07-24T22:22:35;19.70;1.00
8114;DHT22;4099;52.684;9.918;2022-07-24T22:27:38;19.40;1.00
8114;DHT22;4099;52.684;9.918;2022-07-24T22:32:40;19.20;1.00
8114;DHT22;4099;52.684;9.918;2022-07-24T22:37:46;19.10;1.00
8114;DHT22;4099;52.684;9.918;2022-07-24T22:42:49;19.00;12.30
8114;DHT22;4099;52.684;9.918;2022-07-24T22:47:54;19.00;94.60
8114;DHT22;4099;52.684;9.918;2022-07-24T22:52:58;18.90;99.90
8114;DHT22;4099;52.684;9.918;2022-07-24T22:58:01;18.90;99.90
8114;DHT22;4099;52.684;9.918;2022-07-24T23:03:04;18.80;99.90
8114;DHT22;4099;52.684;9.918;2022-07-24T23:08:08;18.70;99.90
8114;DHT22;4099;52.684;9.918;2022-07-24T23:13:10;18.60;99.90
8114;DHT22;4099;52.684;9.918;2022-07-24T23:18:12;18.50;99.90
8114;DHT22;4099;52.684;9.918;2022-07-24T23:23:16;18.50;99.90
8114;DHT22;4099;52.684;9.918;2022-07-24T23:28:18;18.60;99.90
8114;DHT22;4099;52.684;9.918;2022-07-24T23:33:20;18.50;99.90
8114;DHT22;4099;52.684;9.918;2022-07-24T23:38:23;18.50;99.90
8114;DHT22;4099;52.684;9.918;2022-07-24T23:43:25;18.30;99.90
8114;DHT22;4099;52.684;9.918;2022-07-24T23:48:27;18.00;99.90
8114;DHT22;4099;52.684;9.918;2022-07-24T23:53:30;18.00;99.90
8114;DHT22;4099;52.684;9.918;2022-07-24T23:58:32;17.90;99.90
